Du Bois, Pennsylvania
Current Conditions -  °F | °C
As of 2:53 AM on Thursday 23 Oct 2014 (Local Time) from KDUJ Reporting Station
Overcast Overcast  
Wind Chill:   Ceiling: 1200
Heat Index:   Visibility: 10mi
Dew Point:   Wind: 10mph
Humidity: 82%   Direction: 330°NNW
Pressure: 30.05"   Gusts: 24mph
Location:  41.12°N, 78.76°W
Report Text: KDUJ 230653Z AUTO 33009G21KT 10SM OVC012 07/04 A3005 RMK AO2 SLP183 T00670039
Loading
Personal Weather Stations






























Interactive Weather Map
Tropical Storm Tracking
New forecast layout! Learn more

10-Day Weather Forecast

Advertisements
Track Severe Weather on mobile